sensor_id;sensor_type;location;lat;lon;timestamp;P1;durP1;ratioP1;P2;durP2;ratioP2
13785;SDS011;47474;48.824;9.384;2023-04-01T00:00:25;1.80;;;0.60;;
13785;SDS011;47474;48.824;9.384;2023-04-01T00:02:51;1.50;;;0.70;;
13785;SDS011;47474;48.824;9.384;2023-04-01T00:05:18;1.70;;;0.73;;
13785;SDS011;47474;48.824;9.384;2023-04-01T00:07:46;2.23;;;1.10;;
13785;SDS011;47474;48.824;9.384;2023-04-01T00:10:13;1.47;;;0.80;;
13785;SDS011;47474;48.824;9.384;2023-04-01T00:12:40;1.53;;;0.70;;
13785;SDS011;47474;48.824;9.384;2023-04-01T00:15:07;1.37;;;0.70;;
13785;SDS011;47474;48.824;9.384;2023-04-01T00:17:36;0.90;;;0.60;;
13785;SDS011;47474;48.824;9.384;2023-04-01T00:20:03;1.20;;;0.83;;
13785;SDS011;47474;48.824;9.384;2023-04-01T00:22:30;1.53;;;0.80;;
13785;SDS011;47474;48.824;9.384;2023-04-01T00:24:58;1.03;;;0.80;;
13785;SDS011;47474;48.824;9.384;2023-04-01T00:27:24;0.80;;;0.70;;
13785;SDS011;47474;48.824;9.384;2023-04-01T00:29:51;1.47;;;0.70;;
13785;SDS011;47474;48.824;9.384;2023-04-01T00:32:17;2.53;;;1.20;;
13785;SDS011;47474;48.824;9.384;2023-04-01T00:34:44;1.57;;;0.80;;
13785;SDS011;47474;48.824;9.384;2023-04-01T00:37:11;1.70;;;0.80;;
13785;SDS011;47474;48.824;9.384;2023-04-01T00:39:37;1.93;;;0.83;;
13785;SDS011;47474;48.824;9.384;2023-04-01T00:42:05;2.53;;;1.20;;
13785;SDS011;47474;48.824;9.384;2023-04-01T00:44:33;1.00;;;0.70;;
13785;SDS011;47474;48.824;9.384;2023-04-01T00:47:00;2.60;;;0.93;;
13785;SDS011;47474;48.824;9.384;2023-04-01T00:49:28;2.57;;;0.80;;
13785;SDS011;47474;48.824;9.384;2023-04-01T00:51:57;1.57;;;0.70;;
13785;SDS011;47474;48.824;9.384;2023-04-01T00:54:25;2.67;;;0.67;;
13785;SDS011;47474;48.824;9.384;2023-04-01T00:56:54;1.33;;;1.00;;
13785;SDS011;47474;48.824;9.384;2023-04-01T00:59:25;3.10;;;0.80;;
13785;SDS011;47474;48.824;9.384;2023-04-01T01:01:53;1.73;;;0.80;;
13785;SDS011;47474;48.824;9.384;2023-04-01T01:04:23;2.10;;;0.67;;
13785;SDS011;47474;48.824;9.384;2023-04-01T01:06:54;3.23;;;0.77;;
13785;SDS011;47474;48.824;9.384;2023-04-01T01:09:26;1.90;;;0.80;;
13785;SDS011;47474;48.824;9.384;2023-04-01T01:12:00;1.50;;;0.90;;
13785;SDS011;47474;48.824;9.384;2023-04-01T01:14:36;0.73;;;0.70;;
13785;SDS011;47474;48.824;9.384;2023-04-01T01:17:11;0.93;;;0.70;;
13785;SDS011;47474;48.824;9.384;2023-04-01T01:19:55;1.23;;;0.70;;
13785;SDS011;47474;48.824;9.384;2023-04-01T01:22:34;1.13;;;0.70;;
13785;SDS011;47474;48.824;9.384;2023-04-01T01:27:48;1.20;;;0.80;;
13785;SDS011;47474;48.824;9.384;2023-04-01T01:30:26;1.20;;;0.90;;
13785;SDS011;47474;48.824;9.384;2023-04-01T01:33:06;0.70;;;0.70;;
13785;SDS011;47474;48.824;9.384;2023-04-01T01:35:41;2.33;;;1.33;;
13785;SDS011;47474;48.824;9.384;2023-04-01T01:38:11;0.90;;;0.87;;
13785;SDS011;47474;48.824;9.384;2023-04-01T01:40:41;1.17;;;0.80;;
13785;SDS011;47474;48.824;9.384;2023-04-01T01:43:09;2.20;;;0.73;;
13785;SDS011;47474;48.824;9.384;2023-04-01T01:45:40;0.70;;;0.70;;
13785;SDS011;47474;48.824;9.384;2023-04-01T01:48:08;1.17;;;0.73;;
13785;SDS011;47474;48.824;9.384;2023-04-01T01:50:36;1.10;;;0.97;;
13785;SDS011;47474;48.824;9.384;2023-04-01T01:53:05;1.00;;;0.60;;
13785;SDS011;47474;48.824;9.384;2023-04-01T01:55:33;3.30;;;1.73;;
13785;SDS011;47474;48.824;9.384;2023-04-01T01:58:02;1.07;;;0.70;;
13785;SDS011;47474;48.824;9.384;2023-04-01T02:00:32;0.77;;;0.53;;
13785;SDS011;47474;48.824;9.384;2023-04-01T02:02:59;0.60;;;0.60;;
13785;SDS011;47474;48.824;9.384;2023-04-01T02:05:27;0.80;;;0.60;;
13785;SDS011;47474;48.824;9.384;2023-04-01T02:07:55;1.67;;;0.87;;
13785;SDS011;47474;48.824;9.384;2023-04-01T02:10:28;2.67;;;0.77;;
13785;SDS011;47474;48.824;9.384;2023-04-01T02:12:58;1.03;;;0.80;;
13785;SDS011;47474;48.824;9.384;2023-04-01T02:15:26;1.77;;;0.80;;
13785;SDS011;47474;48.824;9.384;2023-04-01T02:17:55;1.37;;;0.70;;
13785;SDS011;47474;48.824;9.384;2023-04-01T02:20:23;0.97;;;0.70;;
13785;SDS011;47474;48.824;9.384;2023-04-01T02:22:50;3.30;;;1.00;;
13785;SDS011;47474;48.824;9.384;2023-04-01T02:25:18;2.67;;;0.77;;
13785;SDS011;47474;48.824;9.384;2023-04-01T02:27:50;1.07;;;0.80;;
13785;SDS011;47474;48.824;9.384;2023-04-01T02:30:17;1.27;;;0.70;;
13785;SDS011;47474;48.824;9.384;2023-04-01T02:32:45;1.37;;;0.90;;
13785;SDS011;47474;48.824;9.384;2023-04-01T02:35:12;0.60;;;0.60;;
13785;SDS011;47474;48.824;9.384;2023-04-01T02:37:40;1.70;;;0.80;;
13785;SDS011;47474;48.824;9.384;2023-04-01T02:40:10;1.10;;;0.70;;
13785;SDS011;47474;48.824;9.384;2023-04-01T02:42:38;1.43;;;0.93;;
13785;SDS011;47474;48.824;9.384;2023-04-01T02:45:07;1.00;;;0.60;;
13785;SDS011;47474;48.824;9.384;2023-04-01T02:47:34;0.73;;;0.63;;
13785;SDS011;47474;48.824;9.384;2023-04-01T02:50:01;0.60;;;0.53;;
13785;SDS011;47474;48.824;9.384;2023-04-01T02:52:28;0.30;;;0.30;;
13785;SDS011;47474;48.824;9.384;2023-04-01T02:54:55;1.20;;;0.40;;
13785;SDS011;47474;48.824;9.384;2023-04-01T02:57:22;0.40;;;0.40;;
13785;SDS011;47474;48.824;9.384;2023-04-01T02:59:48;0.50;;;0.40;;
13785;SDS011;47474;48.824;9.384;2023-04-01T03:02:17;0.47;;;0.47;;
13785;SDS011;47474;48.824;9.384;2023-04-01T03:04:43;0.50;;;0.50;;
13785;SDS011;47474;48.824;9.384;2023-04-01T03:07:10;0.40;;;0.40;;
13785;SDS011;47474;48.824;9.384;2023-04-01T03:09:37;1.80;;;0.77;;
13785;SDS011;47474;48.824;9.384;2023-04-01T03:12:05;0.77;;;0.70;;
13785;SDS011;47474;48.824;9.384;2023-04-01T03:14:31;0.60;;;0.50;;
13785;SDS011;47474;48.824;9.384;2023-04-01T03:16:58;0.73;;;0.50;;
13785;SDS011;47474;48.824;9.384;2023-04-01T03:19:26;0.40;;;0.30;;
13785;SDS011;47474;48.824;9.384;2023-04-01T03:21:53;1.17;;;0.53;;
13785;SDS011;47474;48.824;9.384;2023-04-01T03:24:20;1.17;;;0.57;;
13785;SDS011;47474;48.824;9.384;2023-04-01T03:26:46;0.50;;;0.50;;
13785;SDS011;47474;48.824;9.384;2023-04-01T03:29:13;1.17;;;0.40;;
13785;SDS011;47474;48.824;9.384;2023-04-01T03:31:40;0.70;;;0.70;;
13785;SDS011;47474;48.824;9.384;2023-04-01T03:34:07;1.10;;;0.60;;
13785;SDS011;47474;48.824;9.384;2023-04-01T03:36:36;1.53;;;0.57;;
13785;SDS011;47474;48.824;9.384;2023-04-01T03:39:02;1.70;;;0.70;;
13785;SDS011;47474;48.824;9.384;2023-04-01T03:41:30;1.50;;;0.40;;
13785;SDS011;47474;48.824;9.384;2023-04-01T03:43:56;0.40;;;0.40;;
13785;SDS011;47474;48.824;9.384;2023-04-01T03:46:23;0.47;;;0.47;;
13785;SDS011;47474;48.824;9.384;2023-04-01T03:48:49;0.80;;;0.57;;
13785;SDS011;47474;48.824;9.384;2023-04-01T03:51:16;0.57;;;0.57;;
13785;SDS011;47474;48.824;9.384;2023-04-01T03:53:44;0.83;;;0.50;;
13785;SDS011;47474;48.824;9.384;2023-04-01T03:56:10;1.57;;;0.50;;
13785;SDS011;47474;48.824;9.384;2023-04-01T03:58:37;0.57;;;0.50;;
13785;SDS011;47474;48.824;9.384;2023-04-01T04:01:12;0.60;;;0.50;;
13785;SDS011;47474;48.824;9.384;2023-04-01T04:03:40;0.80;;;0.50;;
13785;SDS011;47474;48.824;9.384;2023-04-01T04:06:09;1.90;;;0.70;;
13785;SDS011;47474;48.824;9.384;2023-04-01T04:08:37;0.50;;;0.50;;
13785;SDS011;47474;48.824;9.384;2023-04-01T04:11:05;0.70;;;0.53;;
13785;SDS011;47474;48.824;9.384;2023-04-01T04:13:32;1.43;;;0.50;;
13785;SDS011;47474;48.824;9.384;2023-04-01T04:15:59;1.23;;;0.50;;
13785;SDS011;47474;48.824;9.384;2023-04-01T04:18:25;0.30;;;0.30;;
13785;SDS011;47474;48.824;9.384;2023-04-01T04:20:52;0.93;;;0.50;;
13785;SDS011;47474;48.824;9.384;2023-04-01T04:23:18;2.13;;;0.63;;
13785;SDS011;47474;48.824;9.384;2023-04-01T04:25:53;0.50;;;0.40;;
13785;SDS011;47474;48.824;9.384;2023-04-01T04:28:21;0.33;;;0.33;;
13785;SDS011;47474;48.824;9.384;2023-04-01T04:30:48;0.40;;;0.40;;
13785;SDS011;47474;48.824;9.384;2023-04-01T04:33:14;0.80;;;0.37;;
13785;SDS011;47474;48.824;9.384;2023-04-01T04:35:41;1.37;;;0.30;;
13785;SDS011;47474;48.824;9.384;2023-04-01T04:38:08;1.43;;;0.50;;
13785;SDS011;47474;48.824;9.384;2023-04-01T04:40:35;0.30;;;0.30;;
13785;SDS011;47474;48.824;9.384;2023-04-01T04:43:02;0.43;;;0.43;;
13785;SDS011;47474;48.824;9.384;2023-04-01T04:45:30;2.20;;;0.50;;
13785;SDS011;47474;48.824;9.384;2023-04-01T04:47:56;0.63;;;0.40;;
13785;SDS011;47474;48.824;9.384;2023-04-01T04:50:23;0.83;;;0.40;;
13785;SDS011;47474;48.824;9.384;2023-04-01T04:52:50;0.60;;;0.40;;
13785;SDS011;47474;48.824;9.384;2023-04-01T04:55:17;0.40;;;0.40;;
13785;SDS011;47474;48.824;9.384;2023-04-01T04:57:43;0.43;;;0.40;;
13785;SDS011;47474;48.824;9.384;2023-04-01T05:00:10;1.17;;;0.53;;
13785;SDS011;47474;48.824;9.384;2023-04-01T05:02:38;2.33;;;0.50;;
13785;SDS011;47474;48.824;9.384;2023-04-01T05:05:05;0.50;;;0.30;;
13785;SDS011;47474;48.824;9.384;2023-04-01T05:07:32;1.33;;;0.60;;
13785;SDS011;47474;48.824;9.384;2023-04-01T05:09:59;0.90;;;0.50;;
13785;SDS011;47474;48.824;9.384;2023-04-01T05:12:25;0.50;;;0.50;;
13785;SDS011;47474;48.824;9.384;2023-04-01T05:14:52;0.77;;;0.60;;
13785;SDS011;47474;48.824;9.384;2023-04-01T05:17:19;0.60;;;0.60;;
13785;SDS011;47474;48.824;9.384;2023-04-01T05:19:46;1.80;;;0.67;;
13785;SDS011;47474;48.824;9.384;2023-04-01T05:22:13;2.37;;;0.73;;
13785;SDS011;47474;48.824;9.384;2023-04-01T05:24:40;1.37;;;0.60;;
13785;SDS011;47474;48.824;9.384;2023-04-01T05:27:06;0.90;;;0.63;;
13785;SDS011;47474;48.824;9.384;2023-04-01T05:29:33;0.90;;;0.90;;
13785;SDS011;47474;48.824;9.384;2023-04-01T05:32:00;1.60;;;0.87;;
13785;SDS011;47474;48.824;9.384;2023-04-01T05:34:26;1.23;;;0.90;;
13785;SDS011;47474;48.824;9.384;2023-04-01T05:36:54;7.30;;;3.80;;
13785;SDS011;47474;48.824;9.384;2023-04-01T05:39:21;6.00;;;5.47;;
13785;SDS011;47474;48.824;9.384;2023-04-01T05:41:48;16.87;;;15.47;;
13785;SDS011;47474;48.824;9.384;2023-04-01T05:44:15;14.50;;;13.50;;
13785;SDS011;47474;48.824;9.384;2023-04-01T05:46:41;4.30;;;3.70;;
13785;SDS011;47474;48.824;9.384;2023-04-01T05:49:08;3.63;;;2.20;;
13785;SDS011;47474;48.824;9.384;2023-04-01T05:51:34;3.17;;;1.50;;
13785;SDS011;47474;48.824;9.384;2023-04-01T05:54:02;1.50;;;0.97;;
13785;SDS011;47474;48.824;9.384;2023-04-01T05:56:30;0.83;;;0.80;;
13785;SDS011;47474;48.824;9.384;2023-04-01T05:58:57;4.10;;;0.97;;
13785;SDS011;47474;48.824;9.384;2023-04-01T06:01:23;1.23;;;0.90;;
13785;SDS011;47474;48.824;9.384;2023-04-01T06:03:50;2.13;;;1.40;;
13785;SDS011;47474;48.824;9.384;2023-04-01T06:06:18;0.70;;;0.70;;
13785;SDS011;47474;48.824;9.384;2023-04-01T06:08:48;1.30;;;0.53;;
13785;SDS011;47474;48.824;9.384;2023-04-01T06:11:18;1.07;;;0.97;;
13785;SDS011;47474;48.824;9.384;2023-04-01T06:13:56;2.43;;;0.60;;
13785;SDS011;47474;48.824;9.384;2023-04-01T06:16:32;1.07;;;0.80;;
13785;SDS011;47474;48.824;9.384;2023-04-01T06:19:09;1.53;;;0.80;;
13785;SDS011;47474;48.824;9.384;2023-04-01T06:21:46;1.20;;;0.80;;
13785;SDS011;47474;48.824;9.384;2023-04-01T06:24:26;1.30;;;1.07;;
13785;SDS011;47474;48.824;9.384;2023-04-01T06:27:03;1.10;;;1.00;;
13785;SDS011;47474;48.824;9.384;2023-04-01T06:29:50;1.53;;;0.83;;
13785;SDS011;47474;48.824;9.384;2023-04-01T06:32:24;1.23;;;1.10;;
13785;SDS011;47474;48.824;9.384;2023-04-01T06:35:14;0.80;;;0.80;;
13785;SDS011;47474;48.824;9.384;2023-04-01T06:37:48;1.33;;;0.80;;
13785;SDS011;47474;48.824;9.384;2023-04-01T06:43:35;3.13;;;1.63;;
13785;SDS011;47474;48.824;9.384;2023-04-01T06:46:06;2.30;;;1.00;;
13785;SDS011;47474;48.824;9.384;2023-04-01T06:48:47;2.00;;;1.90;;
13785;SDS011;47474;48.824;9.384;2023-04-01T06:51:24;1.40;;;1.30;;
13785;SDS011;47474;48.824;9.384;2023-04-01T06:53:54;0.87;;;0.70;;
13785;SDS011;47474;48.824;9.384;2023-04-01T06:56:24;0.80;;;0.63;;
13785;SDS011;47474;48.824;9.384;2023-04-01T06:58:54;1.43;;;0.80;;
13785;SDS011;47474;48.824;9.384;2023-04-01T07:01:24;0.73;;;0.67;;
13785;SDS011;47474;48.824;9.384;2023-04-01T07:03:53;0.93;;;0.63;;
13785;SDS011;47474;48.824;9.384;2023-04-01T07:06:24;0.80;;;0.80;;
13785;SDS011;47474;48.824;9.384;2023-04-01T07:08:53;0.80;;;0.80;;
13785;SDS011;47474;48.824;9.384;2023-04-01T07:11:22;1.03;;;0.93;;
13785;SDS011;47474;48.824;9.384;2023-04-01T07:13:54;0.70;;;0.70;;
13785;SDS011;47474;48.824;9.384;2023-04-01T07:16:24;2.13;;;0.90;;
13785;SDS011;47474;48.824;9.384;2023-04-01T07:18:54;1.23;;;0.67;;
13785;SDS011;47474;48.824;9.384;2023-04-01T07:21:25;1.60;;;0.73;;
13785;SDS011;47474;48.824;9.384;2023-04-01T07:23:54;0.73;;;0.73;;
13785;SDS011;47474;48.824;9.384;2023-04-01T07:26:23;2.63;;;1.47;;
13785;SDS011;47474;48.824;9.384;2023-04-01T07:28:52;2.13;;;1.73;;
13785;SDS011;47474;48.824;9.384;2023-04-01T07:31:24;1.83;;;1.13;;
13785;SDS011;47474;48.824;9.384;2023-04-01T07:33:58;0.80;;;0.80;;
13785;SDS011;47474;48.824;9.384;2023-04-01T07:36:30;1.13;;;0.90;;
13785;SDS011;47474;48.824;9.384;2023-04-01T07:39:03;1.10;;;0.90;;
13785;SDS011;47474;48.824;9.384;2023-04-01T07:41:37;1.00;;;0.90;;
13785;SDS011;47474;48.824;9.384;2023-04-01T07:44:12;2.03;;;1.13;;
13785;SDS011;47474;48.824;9.384;2023-04-01T07:46:47;0.77;;;0.77;;
13785;SDS011;47474;48.824;9.384;2023-04-01T07:49:29;1.13;;;0.90;;
13785;SDS011;47474;48.824;9.384;2023-04-01T07:52:00;1.67;;;0.90;;
13785;SDS011;47474;48.824;9.384;2023-04-01T07:54:33;1.00;;;0.60;;
13785;SDS011;47474;48.824;9.384;2023-04-01T07:57:06;0.57;;;0.57;;
13785;SDS011;47474;48.824;9.384;2023-04-01T07:59:38;0.60;;;0.60;;
13785;SDS011;47474;48.824;9.384;2023-04-01T08:02:10;1.60;;;0.70;;
13785;SDS011;47474;48.824;9.384;2023-04-01T08:04:48;0.83;;;0.60;;
13785;SDS011;47474;48.824;9.384;2023-04-01T08:07:22;0.60;;;0.60;;
13785;SDS011;47474;48.824;9.384;2023-04-01T08:09:52;1.80;;;0.80;;
13785;SDS011;47474;48.824;9.384;2023-04-01T08:12:27;0.60;;;0.60;;
13785;SDS011;47474;48.824;9.384;2023-04-01T08:15:03;1.90;;;0.70;;
13785;SDS011;47474;48.824;9.384;2023-04-01T08:17:36;1.60;;;1.10;;
13785;SDS011;47474;48.824;9.384;2023-04-01T08:20:13;1.60;;;0.80;;
13785;SDS011;47474;48.824;9.384;2023-04-01T08:22:50;1.27;;;1.00;;
13785;SDS011;47474;48.824;9.384;2023-04-01T08:25:19;0.97;;;0.97;;
13785;SDS011;47474;48.824;9.384;2023-04-01T08:27:50;2.00;;;0.73;;
13785;SDS011;47474;48.824;9.384;2023-04-01T08:30:24;1.33;;;0.60;;
13785;SDS011;47474;48.824;9.384;2023-04-01T08:32:52;0.93;;;0.90;;
13785;SDS011;47474;48.824;9.384;2023-04-01T08:35:24;1.43;;;0.87;;
13785;SDS011;47474;48.824;9.384;2023-04-01T08:37:53;0.60;;;0.60;;
13785;SDS011;47474;48.824;9.384;2023-04-01T08:43:27;1.30;;;0.80;;
13785;SDS011;47474;48.824;9.384;2023-04-01T08:46:15;1.27;;;0.63;;
13785;SDS011;47474;48.824;9.384;2023-04-01T08:48:53;0.80;;;0.50;;
13785;SDS011;47474;48.824;9.384;2023-04-01T08:54:31;1.00;;;0.50;;
13785;SDS011;47474;48.824;9.384;2023-04-01T08:57:06;1.77;;;0.90;;
13785;SDS011;47474;48.824;9.384;2023-04-01T08:59:42;0.70;;;0.60;;
13785;SDS011;47474;48.824;9.384;2023-04-01T09:08:16;1.27;;;0.87;;
13785;SDS011;47474;48.824;9.384;2023-04-01T09:10:56;1.57;;;0.53;;
13785;SDS011;47474;48.824;9.384;2023-04-01T09:13:36;1.30;;;1.20;;
13785;SDS011;47474;48.824;9.384;2023-04-01T09:19:29;0.43;;;0.43;;
13785;SDS011;47474;48.824;9.384;2023-04-01T09:22:07;1.57;;;0.50;;
13785;SDS011;47474;48.824;9.384;2023-04-01T09:27:43;0.70;;;0.70;;
13785;SDS011;47474;48.824;9.384;2023-04-01T09:33:27;0.53;;;0.53;;
13785;SDS011;47474;48.824;9.384;2023-04-01T09:36:21;2.87;;;1.23;;
13785;SDS011;47474;48.824;9.384;2023-04-01T09:38:57;0.80;;;0.60;;
13785;SDS011;47474;48.824;9.384;2023-04-01T09:41:28;1.70;;;1.03;;
13785;SDS011;47474;48.824;9.384;2023-04-01T09:44:00;2.07;;;0.70;;
13785;SDS011;47474;48.824;9.384;2023-04-01T09:46:32;1.07;;;0.60;;
13785;SDS011;47474;48.824;9.384;2023-04-01T09:52:10;1.13;;;0.73;;
13785;SDS011;47474;48.824;9.384;2023-04-01T09:54:47;0.77;;;0.53;;
13785;SDS011;47474;48.824;9.384;2023-04-01T09:57:31;1.47;;;1.37;;
13785;SDS011;47474;48.824;9.384;2023-04-01T10:00:18;0.93;;;0.53;;
13785;SDS011;47474;48.824;9.384;2023-04-01T10:02:58;0.73;;;0.50;;
13785;SDS011;47474;48.824;9.384;2023-04-01T10:12:00;1.70;;;0.93;;
13785;SDS011;47474;48.824;9.384;2023-04-01T10:15:10;1.27;;;0.90;;
13785;SDS011;47474;48.824;9.384;2023-04-01T10:20:54;1.50;;;0.70;;
13785;SDS011;47474;48.824;9.384;2023-04-01T10:28:31;0.80;;;0.80;;
13785;SDS011;47474;48.824;9.384;2023-04-01T10:37:36;1.43;;;1.20;;
13785;SDS011;47474;48.824;9.384;2023-04-01T10:40:36;2.40;;;1.83;;
13785;SDS011;47474;48.824;9.384;2023-04-01T10:43:10;0.50;;;0.50;;
13785;SDS011;47474;48.824;9.384;2023-04-01T10:49:26;0.50;;;0.50;;
13785;SDS011;47474;48.824;9.384;2023-04-01T10:52:12;1.93;;;1.40;;
13785;SDS011;47474;48.824;9.384;2023-04-01T10:54:51;1.20;;;1.10;;
13785;SDS011;47474;48.824;9.384;2023-04-01T10:57:38;3.33;;;1.60;;
13785;SDS011;47474;48.824;9.384;2023-04-01T11:00:20;1.10;;;0.60;;
13785;SDS011;47474;48.824;9.384;2023-04-01T11:03:06;0.87;;;0.80;;
13785;SDS011;47474;48.824;9.384;2023-04-01T11:09:00;0.60;;;0.60;;
13785;SDS011;47474;48.824;9.384;2023-04-01T11:15:00;0.70;;;0.70;;
13785;SDS011;47474;48.824;9.384;2023-04-01T11:20:42;1.07;;;0.97;;
13785;SDS011;47474;48.824;9.384;2023-04-01T11:23:35;0.53;;;0.53;;
13785;SDS011;47474;48.824;9.384;2023-04-01T11:26:20;0.50;;;0.50;;
13785;SDS011;47474;48.824;9.384;2023-04-01T11:29:00;0.50;;;0.50;;
13785;SDS011;47474;48.824;9.384;2023-04-01T11:31:42;0.47;;;0.47;;
13785;SDS011;47474;48.824;9.384;2023-04-01T11:34:24;0.47;;;0.47;;
13785;SDS011;47474;48.824;9.384;2023-04-01T11:37:01;0.30;;;0.30;;
13785;SDS011;47474;48.824;9.384;2023-04-01T11:39:32;0.70;;;0.70;;
13785;SDS011;47474;48.824;9.384;2023-04-01T11:42:03;0.40;;;0.40;;
13785;SDS011;47474;48.824;9.384;2023-04-01T11:44:38;0.50;;;0.50;;
13785;SDS011;47474;48.824;9.384;2023-04-01T11:47:15;0.40;;;0.30;;
13785;SDS011;47474;48.824;9.384;2023-04-01T11:49:57;0.67;;;0.60;;
13785;SDS011;47474;48.824;9.384;2023-04-01T11:52:44;0.67;;;0.57;;
13785;SDS011;47474;48.824;9.384;2023-04-01T11:55:21;0.53;;;0.53;;
13785;SDS011;47474;48.824;9.384;2023-04-01T11:57:55;0.30;;;0.30;;
13785;SDS011;47474;48.824;9.384;2023-04-01T12:00:42;2.00;;;1.30;;
13785;SDS011;47474;48.824;9.384;2023-04-01T12:03:28;1.50;;;0.90;;
13785;SDS011;47474;48.824;9.384;2023-04-01T12:06:08;0.40;;;0.40;;
13785;SDS011;47474;48.824;9.384;2023-04-01T12:08:40;0.30;;;0.30;;
13785;SDS011;47474;48.824;9.384;2023-04-01T12:11:12;1.00;;;0.90;;
13785;SDS011;47474;48.824;9.384;2023-04-01T12:13:43;0.50;;;0.47;;
13785;SDS011;47474;48.824;9.384;2023-04-01T12:16:17;0.50;;;0.50;;
13785;SDS011;47474;48.824;9.384;2023-04-01T12:18:50;0.50;;;0.50;;
13785;SDS011;47474;48.824;9.384;2023-04-01T12:21:23;1.93;;;0.57;;
13785;SDS011;47474;48.824;9.384;2023-04-01T12:23:56;0.40;;;0.40;;
13785;SDS011;47474;48.824;9.384;2023-04-01T12:26:52;0.60;;;0.60;;
13785;SDS011;47474;48.824;9.384;2023-04-01T12:29:37;1.77;;;1.07;;
13785;SDS011;47474;48.824;9.384;2023-04-01T12:32:16;0.77;;;0.70;;
13785;SDS011;47474;48.824;9.384;2023-04-01T12:34:49;0.40;;;0.40;;
13785;SDS011;47474;48.824;9.384;2023-04-01T12:37:26;0.67;;;0.60;;
13785;SDS011;47474;48.824;9.384;2023-04-01T12:42:51;0.50;;;0.50;;
13785;SDS011;47474;48.824;9.384;2023-04-01T12:45:27;0.50;;;0.50;;
13785;SDS011;47474;48.824;9.384;2023-04-01T12:56:42;0.40;;;0.40;;
13785;SDS011;47474;48.824;9.384;2023-04-01T12:59:24;0.30;;;0.30;;
13785;SDS011;47474;48.824;9.384;2023-04-01T13:02:12;0.67;;;0.67;;
13785;SDS011;47474;48.824;9.384;2023-04-01T13:04:51;0.40;;;0.40;;
13785;SDS011;47474;48.824;9.384;2023-04-01T13:07:52;1.10;;;1.00;;
13785;SDS011;47474;48.824;9.384;2023-04-01T13:10:27;0.90;;;0.90;;
13785;SDS011;47474;48.824;9.384;2023-04-01T13:13:06;0.70;;;0.50;;
13785;SDS011;47474;48.824;9.384;2023-04-01T13:15:40;0.80;;;0.73;;
13785;SDS011;47474;48.824;9.384;2023-04-01T13:18:13;1.87;;;1.57;;
13785;SDS011;47474;48.824;9.384;2023-04-01T13:20:47;0.93;;;0.83;;
13785;SDS011;47474;48.824;9.384;2023-04-01T13:23:29;0.50;;;0.50;;
13785;SDS011;47474;48.824;9.384;2023-04-01T13:26:04;0.50;;;0.50;;
13785;SDS011;47474;48.824;9.384;2023-04-01T13:28:35;0.20;;;0.20;;
13785;SDS011;47474;48.824;9.384;2023-04-01T13:31:05;0.60;;;0.50;;
13785;SDS011;47474;48.824;9.384;2023-04-01T13:33:40;0.40;;;0.40;;
13785;SDS011;47474;48.824;9.384;2023-04-01T13:36:13;0.40;;;0.40;;
13785;SDS011;47474;48.824;9.384;2023-04-01T13:38:48;0.40;;;0.40;;
13785;SDS011;47474;48.824;9.384;2023-04-01T13:41:45;0.60;;;0.60;;
13785;SDS011;47474;48.824;9.384;2023-04-01T13:44:22;0.50;;;0.47;;
13785;SDS011;47474;48.824;9.384;2023-04-01T13:46:59;0.30;;;0.30;;
13785;SDS011;47474;48.824;9.384;2023-04-01T13:52:41;0.30;;;0.30;;
13785;SDS011;47474;48.824;9.384;2023-04-01T13:58:16;1.43;;;0.50;;
13785;SDS011;47474;48.824;9.384;2023-04-01T14:00:53;0.30;;;0.30;;
13785;SDS011;47474;48.824;9.384;2023-04-01T14:03:32;0.60;;;0.60;;
13785;SDS011;47474;48.824;9.384;2023-04-01T14:06:09;0.40;;;0.40;;
13785;SDS011;47474;48.824;9.384;2023-04-01T14:08:42;0.30;;;0.30;;
13785;SDS011;47474;48.824;9.384;2023-04-01T14:11:19;1.03;;;0.40;;
13785;SDS011;47474;48.824;9.384;2023-04-01T14:13:56;0.40;;;0.40;;
13785;SDS011;47474;48.824;9.384;2023-04-01T14:16:33;1.73;;;0.50;;
13785;SDS011;47474;48.824;9.384;2023-04-01T14:19:18;0.30;;;0.30;;
13785;SDS011;47474;48.824;9.384;2023-04-01T14:21:53;0.30;;;0.30;;
13785;SDS011;47474;48.824;9.384;2023-04-01T14:27:30;0.40;;;0.40;;
13785;SDS011;47474;48.824;9.384;2023-04-01T14:30:08;1.10;;;0.60;;
13785;SDS011;47474;48.824;9.384;2023-04-01T14:32:45;0.30;;;0.30;;
13785;SDS011;47474;48.824;9.384;2023-04-01T14:35:25;2.53;;;0.50;;
13785;SDS011;47474;48.824;9.384;2023-04-01T14:40:53;0.70;;;0.70;;
13785;SDS011;47474;48.824;9.384;2023-04-01T14:43:28;0.33;;;0.33;;
13785;SDS011;47474;48.824;9.384;2023-04-01T14:46:14;0.20;;;0.20;;
13785;SDS011;47474;48.824;9.384;2023-04-01T14:48:51;0.50;;;0.50;;
13785;SDS011;47474;48.824;9.384;2023-04-01T14:51:20;0.40;;;0.40;;
13785;SDS011;47474;48.824;9.384;2023-04-01T14:53:53;0.30;;;0.30;;
13785;SDS011;47474;48.824;9.384;2023-04-01T14:56:35;0.50;;;0.50;;
13785;SDS011;47474;48.824;9.384;2023-04-01T14:59:04;0.50;;;0.50;;
13785;SDS011;47474;48.824;9.384;2023-04-01T15:01:37;0.40;;;0.40;;
13785;SDS011;47474;48.824;9.384;2023-04-01T15:04:12;0.30;;;0.30;;
13785;SDS011;47474;48.824;9.384;2023-04-01T15:06:56;0.30;;;0.30;;
13785;SDS011;47474;48.824;9.384;2023-04-01T15:09:30;0.30;;;0.30;;
13785;SDS011;47474;48.824;9.384;2023-04-01T15:12:04;0.30;;;0.30;;
13785;SDS011;47474;48.824;9.384;2023-04-01T15:14:40;0.40;;;0.40;;
13785;SDS011;47474;48.824;9.384;2023-04-01T15:17:18;2.93;;;1.83;;
13785;SDS011;47474;48.824;9.384;2023-04-01T15:19:59;2.63;;;1.50;;
13785;SDS011;47474;48.824;9.384;2023-04-01T15:22:43;1.23;;;0.80;;
13785;SDS011;47474;48.824;9.384;2023-04-01T15:25:22;0.70;;;0.70;;
13785;SDS011;47474;48.824;9.384;2023-04-01T15:27:55;0.50;;;0.50;;
13785;SDS011;47474;48.824;9.384;2023-04-01T15:30:30;0.50;;;0.50;;
13785;SDS011;47474;48.824;9.384;2023-04-01T15:35:46;0.30;;;0.30;;
13785;SDS011;47474;48.824;9.384;2023-04-01T15:38:21;0.50;;;0.50;;
13785;SDS011;47474;48.824;9.384;2023-04-01T15:40:53;0.30;;;0.30;;
13785;SDS011;47474;48.824;9.384;2023-04-01T15:43:25;0.70;;;0.70;;
13785;SDS011;47474;48.824;9.384;2023-04-01T15:45:57;1.97;;;1.70;;
13785;SDS011;47474;48.824;9.384;2023-04-01T15:48:33;19.50;;;11.67;;
13785;SDS011;47474;48.824;9.384;2023-04-01T15:51:10;4.13;;;3.23;;
13785;SDS011;47474;48.824;9.384;2023-04-01T15:53:48;0.57;;;0.57;;
13785;SDS011;47474;48.824;9.384;2023-04-01T15:56:36;0.40;;;0.40;;
13785;SDS011;47474;48.824;9.384;2023-04-01T15:59:13;0.60;;;0.60;;
13785;SDS011;47474;48.824;9.384;2023-04-01T16:01:48;0.60;;;0.60;;
13785;SDS011;47474;48.824;9.384;2023-04-01T16:04:30;0.60;;;0.60;;
13785;SDS011;47474;48.824;9.384;2023-04-01T16:07:10;0.50;;;0.50;;
13785;SDS011;47474;48.824;9.384;2023-04-01T16:09:39;0.60;;;0.60;;
13785;SDS011;47474;48.824;9.384;2023-04-01T16:12:15;0.50;;;0.50;;
13785;SDS011;47474;48.824;9.384;2023-04-01T16:14:44;0.30;;;0.30;;
13785;SDS011;47474;48.824;9.384;2023-04-01T16:17:23;0.30;;;0.30;;
13785;SDS011;47474;48.824;9.384;2023-04-01T16:20:00;0.60;;;0.60;;
13785;SDS011;47474;48.824;9.384;2023-04-01T16:22:31;0.37;;;0.37;;
13785;SDS011;47474;48.824;9.384;2023-04-01T16:25:14;0.67;;;0.63;;
13785;SDS011;47474;48.824;9.384;2023-04-01T16:27:46;0.50;;;0.50;;
13785;SDS011;47474;48.824;9.384;2023-04-01T16:30:23;1.50;;;0.70;;
13785;SDS011;47474;48.824;9.384;2023-04-01T16:32:59;0.70;;;0.70;;
13785;SDS011;47474;48.824;9.384;2023-04-01T16:35:31;0.60;;;0.60;;
13785;SDS011;47474;48.824;9.384;2023-04-01T16:38:05;0.47;;;0.47;;
13785;SDS011;47474;48.824;9.384;2023-04-01T16:40:40;0.43;;;0.43;;
13785;SDS011;47474;48.824;9.384;2023-04-01T16:43:15;0.63;;;0.63;;
13785;SDS011;47474;48.824;9.384;2023-04-01T16:45:46;0.70;;;0.50;;
13785;SDS011;47474;48.824;9.384;2023-04-01T16:48:20;0.60;;;0.60;;
13785;SDS011;47474;48.824;9.384;2023-04-01T16:50:53;0.50;;;0.50;;
13785;SDS011;47474;48.824;9.384;2023-04-01T16:53:25;0.83;;;0.60;;